sensor_id;sensor_type;location;lat;lon;timestamp;P1;durP1;ratioP1;P2;durP2;ratioP2
54627;SDS011;40525;55.926;21.066;2022-12-10T00:00:44;10.10;;;3.70;;
54627;SDS011;40525;55.926;21.066;2022-12-10T00:03:10;9.88;;;3.30;;
54627;SDS011;40525;55.926;21.066;2022-12-10T00:05:37;8.75;;;3.77;;
54627;SDS011;40525;55.926;21.066;2022-12-10T00:08:03;10.65;;;3.75;;
54627;SDS011;40525;55.926;21.066;2022-12-10T00:10:30;10.03;;;4.00;;
54627;SDS011;40525;55.926;21.066;2022-12-10T00:12:57;11.00;;;3.50;;
54627;SDS011;40525;55.926;21.066;2022-12-10T00:15:23;9.98;;;3.85;;
54627;SDS011;40525;55.926;21.066;2022-12-10T00:17:50;6.62;;;3.42;;
54627;SDS011;40525;55.926;21.066;2022-12-10T00:20:16;9.13;;;4.10;;
54627;SDS011;40525;55.926;21.066;2022-12-10T00:22:43;9.10;;;3.27;;
54627;SDS011;40525;55.926;21.066;2022-12-10T00:25:10;11.95;;;3.67;;
54627;SDS011;40525;55.926;21.066;2022-12-10T00:27:36;10.30;;;3.90;;
54627;SDS011;40525;55.926;21.066;2022-12-10T00:30:03;9.23;;;4.10;;
54627;SDS011;40525;55.926;21.066;2022-12-10T00:32:32;10.78;;;4.37;;
54627;SDS011;40525;55.926;21.066;2022-12-10T00:34:59;11.25;;;4.67;;
54627;SDS011;40525;55.926;21.066;2022-12-10T00:37:26;16.40;;;5.47;;
54627;SDS011;40525;55.926;21.066;2022-12-10T00:39:52;12.10;;;4.35;;
54627;SDS011;40525;55.926;21.066;2022-12-10T00:42:19;10.23;;;3.98;;
54627;SDS011;40525;55.926;21.066;2022-12-10T00:44:47;13.32;;;4.20;;
54627;SDS011;40525;55.926;21.066;2022-12-10T00:47:14;12.47;;;4.90;;
54627;SDS011;40525;55.926;21.066;2022-12-10T00:49:40;11.40;;;4.05;;
54627;SDS011;40525;55.926;21.066;2022-12-10T00:52:07;8.65;;;3.50;;
54627;SDS011;40525;55.926;21.066;2022-12-10T00:54:33;8.63;;;3.60;;
54627;SDS011;40525;55.926;21.066;2022-12-10T00:57:00;12.50;;;4.08;;
54627;SDS011;40525;55.926;21.066;2022-12-10T00:59:27;7.03;;;2.65;;
54627;SDS011;40525;55.926;21.066;2022-12-10T01:01:53;5.60;;;3.17;;
54627;SDS011;40525;55.926;21.066;2022-12-10T01:04:20;6.33;;;2.30;;
54627;SDS011;40525;55.926;21.066;2022-12-10T01:06:48;4.95;;;2.00;;
54627;SDS011;40525;55.926;21.066;2022-12-10T01:09:24;5.87;;;2.50;;
54627;SDS011;40525;55.926;21.066;2022-12-10T01:11:56;4.53;;;1.92;;
54627;SDS011;40525;55.926;21.066;2022-12-10T01:14:28;4.45;;;1.95;;
54627;SDS011;40525;55.926;21.066;2022-12-10T01:17:01;5.92;;;2.67;;
54627;SDS011;40525;55.926;21.066;2022-12-10T01:19:29;5.08;;;2.02;;
54627;SDS011;40525;55.926;21.066;2022-12-10T01:22:00;5.25;;;2.50;;
54627;SDS011;40525;55.926;21.066;2022-12-10T01:24:28;5.62;;;2.15;;
54627;SDS011;40525;55.926;21.066;2022-12-10T01:26:55;7.10;;;2.80;;
54627;SDS011;40525;55.926;21.066;2022-12-10T01:29:22;4.00;;;2.45;;
54627;SDS011;40525;55.926;21.066;2022-12-10T01:31:50;6.42;;;2.65;;
54627;SDS011;40525;55.926;21.066;2022-12-10T01:34:19;4.10;;;2.22;;
54627;SDS011;40525;55.926;21.066;2022-12-10T01:36:48;8.73;;;2.67;;
54627;SDS011;40525;55.926;21.066;2022-12-10T01:39:18;5.95;;;2.50;;
54627;SDS011;40525;55.926;21.066;2022-12-10T01:41:48;5.22;;;2.47;;
54627;SDS011;40525;55.926;21.066;2022-12-10T01:46:51;6.67;;;2.50;;
54627;SDS011;40525;55.926;21.066;2022-12-10T01:49:41;4.80;;;2.10;;
54627;SDS011;40525;55.926;21.066;2022-12-10T01:52:03;5.42;;;2.50;;
54627;SDS011;40525;55.926;21.066;2022-12-10T01:54:37;6.40;;;2.67;;
54627;SDS011;40525;55.926;21.066;2022-12-10T01:57:12;7.87;;;2.70;;
54627;SDS011;40525;55.926;21.066;2022-12-10T01:59:43;5.75;;;2.20;;
54627;SDS011;40525;55.926;21.066;2022-12-10T02:08:06;6.97;;;2.67;;
54627;SDS011;40525;55.926;21.066;2022-12-10T02:11:08;5.60;;;2.12;;
54627;SDS011;40525;55.926;21.066;2022-12-10T02:13:55;6.28;;;2.52;;
54627;SDS011;40525;55.926;21.066;2022-12-10T02:16:28;7.35;;;3.12;;
54627;SDS011;40525;55.926;21.066;2022-12-10T02:19:09;6.67;;;2.45;;
54627;SDS011;40525;55.926;21.066;2022-12-10T02:21:38;4.60;;;2.45;;
54627;SDS011;40525;55.926;21.066;2022-12-10T02:24:10;6.30;;;2.87;;
54627;SDS011;40525;55.926;21.066;2022-12-10T02:26:43;6.87;;;2.62;;
54627;SDS011;40525;55.926;21.066;2022-12-10T02:29:16;5.70;;;2.47;;
54627;SDS011;40525;55.926;21.066;2022-12-10T02:31:53;3.87;;;1.77;;
54627;SDS011;40525;55.926;21.066;2022-12-10T02:34:32;6.95;;;2.37;;
54627;SDS011;40525;55.926;21.066;2022-12-10T02:37:14;4.30;;;2.17;;
54627;SDS011;40525;55.926;21.066;2022-12-10T02:39:51;7.20;;;2.85;;
54627;SDS011;40525;55.926;21.066;2022-12-10T02:42:21;7.40;;;3.00;;
54627;SDS011;40525;55.926;21.066;2022-12-10T02:44:52;4.47;;;2.25;;
54627;SDS011;40525;55.926;21.066;2022-12-10T02:47:21;7.28;;;2.80;;
54627;SDS011;40525;55.926;21.066;2022-12-10T02:49:50;4.00;;;2.35;;
54627;SDS011;40525;55.926;21.066;2022-12-10T02:52:20;7.33;;;2.77;;
54627;SDS011;40525;55.926;21.066;2022-12-10T02:54:51;4.80;;;2.37;;
54627;SDS011;40525;55.926;21.066;2022-12-10T02:57:32;5.50;;;2.83;;
54627;SDS011;40525;55.926;21.066;2022-12-10T03:00:14;5.55;;;2.70;;
54627;SDS011;40525;55.926;21.066;2022-12-10T03:05:47;8.95;;;3.20;;
54627;SDS011;40525;55.926;21.066;2022-12-10T03:08:28;6.33;;;2.75;;
54627;SDS011;40525;55.926;21.066;2022-12-10T03:11:18;6.15;;;2.72;;
54627;SDS011;40525;55.926;21.066;2022-12-10T03:16:22;5.22;;;2.72;;
54627;SDS011;40525;55.926;21.066;2022-12-10T03:18:52;8.53;;;2.87;;
54627;SDS011;40525;55.926;21.066;2022-12-10T03:21:24;5.42;;;2.67;;
54627;SDS011;40525;55.926;21.066;2022-12-10T03:23:53;5.22;;;2.15;;
54627;SDS011;40525;55.926;21.066;2022-12-10T03:26:20;8.18;;;3.00;;
54627;SDS011;40525;55.926;21.066;2022-12-10T03:28:50;8.45;;;2.67;;
54627;SDS011;40525;55.926;21.066;2022-12-10T03:31:20;6.60;;;2.22;;
54627;SDS011;40525;55.926;21.066;2022-12-10T03:33:48;5.10;;;2.20;;
54627;SDS011;40525;55.926;21.066;2022-12-10T03:36:15;5.97;;;2.33;;
54627;SDS011;40525;55.926;21.066;2022-12-10T03:38:44;6.62;;;2.75;;
54627;SDS011;40525;55.926;21.066;2022-12-10T03:41:11;6.58;;;3.15;;
54627;SDS011;40525;55.926;21.066;2022-12-10T03:43:57;5.65;;;2.42;;
54627;SDS011;40525;55.926;21.066;2022-12-10T03:46:18;6.92;;;2.70;;
54627;SDS011;40525;55.926;21.066;2022-12-10T03:48:45;6.05;;;2.90;;
54627;SDS011;40525;55.926;21.066;2022-12-10T03:51:11;8.85;;;3.02;;
54627;SDS011;40525;55.926;21.066;2022-12-10T03:53:38;5.33;;;2.42;;
54627;SDS011;40525;55.926;21.066;2022-12-10T03:56:04;6.95;;;3.05;;
54627;SDS011;40525;55.926;21.066;2022-12-10T03:58:31;7.12;;;2.70;;
54627;SDS011;40525;55.926;21.066;2022-12-10T04:00:57;6.28;;;2.60;;
54627;SDS011;40525;55.926;21.066;2022-12-10T04:03:24;5.55;;;2.42;;
54627;SDS011;40525;55.926;21.066;2022-12-10T04:05:50;9.63;;;3.40;;
54627;SDS011;40525;55.926;21.066;2022-12-10T04:08:17;5.80;;;1.42;;
54627;SDS011;40525;55.926;21.066;2022-12-10T04:10:43;8.38;;;3.42;;
54627;SDS011;40525;55.926;21.066;2022-12-10T04:13:10;9.73;;;3.00;;
54627;SDS011;40525;55.926;21.066;2022-12-10T04:15:56;8.63;;;3.17;;
54627;SDS011;40525;55.926;21.066;2022-12-10T04:18:40;9.53;;;3.08;;
54627;SDS011;40525;55.926;21.066;2022-12-10T04:21:07;5.90;;;2.75;;
54627;SDS011;40525;55.926;21.066;2022-12-10T04:23:52;6.42;;;2.47;;
54627;SDS011;40525;55.926;21.066;2022-12-10T04:26:37;7.92;;;2.75;;
54627;SDS011;40525;55.926;21.066;2022-12-10T04:29:25;6.20;;;2.60;;
54627;SDS011;40525;55.926;21.066;2022-12-10T04:31:52;10.35;;;3.52;;
54627;SDS011;40525;55.926;21.066;2022-12-10T04:34:20;6.70;;;3.40;;
54627;SDS011;40525;55.926;21.066;2022-12-10T04:36:47;7.22;;;2.92;;
54627;SDS011;40525;55.926;21.066;2022-12-10T04:39:14;5.60;;;3.20;;
54627;SDS011;40525;55.926;21.066;2022-12-10T04:41:43;6.35;;;2.67;;
54627;SDS011;40525;55.926;21.066;2022-12-10T04:44:11;7.95;;;3.30;;
54627;SDS011;40525;55.926;21.066;2022-12-10T04:46:38;6.17;;;2.45;;
54627;SDS011;40525;55.926;21.066;2022-12-10T04:49:05;7.42;;;3.33;;
54627;SDS011;40525;55.926;21.066;2022-12-10T04:51:31;8.60;;;2.92;;
54627;SDS011;40525;55.926;21.066;2022-12-10T04:53:58;9.55;;;3.10;;
54627;SDS011;40525;55.926;21.066;2022-12-10T04:56:25;8.78;;;3.05;;
54627;SDS011;40525;55.926;21.066;2022-12-10T04:58:52;9.20;;;3.08;;
54627;SDS011;40525;55.926;21.066;2022-12-10T05:01:21;6.60;;;2.70;;
54627;SDS011;40525;55.926;21.066;2022-12-10T05:03:48;4.45;;;2.55;;
54627;SDS011;40525;55.926;21.066;2022-12-10T05:06:15;4.80;;;2.65;;
54627;SDS011;40525;55.926;21.066;2022-12-10T05:08:43;10.88;;;3.77;;
54627;SDS011;40525;55.926;21.066;2022-12-10T05:11:11;10.98;;;3.33;;
54627;SDS011;40525;55.926;21.066;2022-12-10T05:13:41;7.53;;;3.10;;
54627;SDS011;40525;55.926;21.066;2022-12-10T05:16:09;12.15;;;4.12;;
54627;SDS011;40525;55.926;21.066;2022-12-10T05:18:39;11.85;;;4.03;;
54627;SDS011;40525;55.926;21.066;2022-12-10T05:21:07;9.83;;;3.67;;
54627;SDS011;40525;55.926;21.066;2022-12-10T05:23:38;9.40;;;3.90;;
54627;SDS011;40525;55.926;21.066;2022-12-10T05:26:18;6.00;;;3.22;;
54627;SDS011;40525;55.926;21.066;2022-12-10T05:28:54;8.25;;;3.42;;
54627;SDS011;40525;55.926;21.066;2022-12-10T05:31:23;7.23;;;3.10;;
54627;SDS011;40525;55.926;21.066;2022-12-10T05:33:55;4.92;;;2.25;;
54627;SDS011;40525;55.926;21.066;2022-12-10T05:36:24;9.33;;;3.45;;
54627;SDS011;40525;55.926;21.066;2022-12-10T05:38:54;5.67;;;2.58;;
54627;SDS011;40525;55.926;21.066;2022-12-10T05:41:28;5.22;;;2.80;;
54627;SDS011;40525;55.926;21.066;2022-12-10T05:43:56;7.20;;;2.90;;
54627;SDS011;40525;55.926;21.066;2022-12-10T05:46:29;5.10;;;2.50;;
54627;SDS011;40525;55.926;21.066;2022-12-10T05:48:55;7.00;;;3.30;;
54627;SDS011;40525;55.926;21.066;2022-12-10T05:51:23;7.58;;;3.42;;
54627;SDS011;40525;55.926;21.066;2022-12-10T05:53:53;10.82;;;5.75;;
54627;SDS011;40525;55.926;21.066;2022-12-10T05:56:21;9.93;;;4.97;;
54627;SDS011;40525;55.926;21.066;2022-12-10T05:58:50;8.50;;;3.65;;
54627;SDS011;40525;55.926;21.066;2022-12-10T06:01:21;6.00;;;3.42;;
54627;SDS011;40525;55.926;21.066;2022-12-10T06:03:52;7.33;;;3.95;;
54627;SDS011;40525;55.926;21.066;2022-12-10T06:06:22;6.65;;;3.40;;
54627;SDS011;40525;55.926;21.066;2022-12-10T06:08:53;8.48;;;3.22;;
54627;SDS011;40525;55.926;21.066;2022-12-10T06:11:20;8.33;;;3.87;;
54627;SDS011;40525;55.926;21.066;2022-12-10T06:13:47;7.22;;;3.90;;
54627;SDS011;40525;55.926;21.066;2022-12-10T06:16:14;8.13;;;3.65;;
54627;SDS011;40525;55.926;21.066;2022-12-10T06:18:41;6.58;;;2.87;;
54627;SDS011;40525;55.926;21.066;2022-12-10T06:21:09;8.10;;;3.27;;
54627;SDS011;40525;55.926;21.066;2022-12-10T06:23:39;6.30;;;3.65;;
54627;SDS011;40525;55.926;21.066;2022-12-10T06:26:11;7.72;;;4.00;;
54627;SDS011;40525;55.926;21.066;2022-12-10T06:28:45;10.23;;;3.98;;
54627;SDS011;40525;55.926;21.066;2022-12-10T06:31:12;7.80;;;4.10;;
54627;SDS011;40525;55.926;21.066;2022-12-10T06:33:40;8.05;;;4.37;;
54627;SDS011;40525;55.926;21.066;2022-12-10T06:36:09;8.10;;;4.45;;
54627;SDS011;40525;55.926;21.066;2022-12-10T06:38:38;9.20;;;4.65;;
54627;SDS011;40525;55.926;21.066;2022-12-10T06:41:06;10.23;;;4.92;;
54627;SDS011;40525;55.926;21.066;2022-12-10T06:43:34;10.35;;;5.12;;
54627;SDS011;40525;55.926;21.066;2022-12-10T06:46:11;9.35;;;4.55;;
54627;SDS011;40525;55.926;21.066;2022-12-10T06:48:38;12.35;;;5.50;;
54627;SDS011;40525;55.926;21.066;2022-12-10T06:51:06;12.18;;;5.60;;
54627;SDS011;40525;55.926;21.066;2022-12-10T06:53:34;8.23;;;4.25;;
54627;SDS011;40525;55.926;21.066;2022-12-10T06:56:04;12.88;;;6.25;;
54627;SDS011;40525;55.926;21.066;2022-12-10T06:58:32;15.03;;;5.60;;
54627;SDS011;40525;55.926;21.066;2022-12-10T07:01:07;24.32;;;10.45;;
54627;SDS011;40525;55.926;21.066;2022-12-10T07:03:39;35.88;;;11.68;;
54627;SDS011;40525;55.926;21.066;2022-12-10T07:06:08;51.08;;;12.90;;
54627;SDS011;40525;55.926;21.066;2022-12-10T07:08:37;41.35;;;11.88;;
54627;SDS011;40525;55.926;21.066;2022-12-10T07:11:04;44.83;;;13.62;;
54627;SDS011;40525;55.926;21.066;2022-12-10T07:13:34;40.20;;;11.83;;
54627;SDS011;40525;55.926;21.066;2022-12-10T07:16:01;37.20;;;11.05;;
54627;SDS011;40525;55.926;21.066;2022-12-10T07:18:29;64.75;;;16.97;;
54627;SDS011;40525;55.926;21.066;2022-12-10T07:20:55;41.28;;;13.90;;
54627;SDS011;40525;55.926;21.066;2022-12-10T07:23:22;20.52;;;7.67;;
54627;SDS011;40525;55.926;21.066;2022-12-10T07:25:49;10.90;;;5.58;;
54627;SDS011;40525;55.926;21.066;2022-12-10T07:28:16;19.20;;;8.85;;
54627;SDS011;40525;55.926;21.066;2022-12-10T07:30:43;14.95;;;8.45;;
54627;SDS011;40525;55.926;21.066;2022-12-10T07:33:10;12.78;;;6.78;;
54627;SDS011;40525;55.926;21.066;2022-12-10T07:35:39;10.08;;;5.20;;
54627;SDS011;40525;55.926;21.066;2022-12-10T07:38:06;12.88;;;7.30;;
54627;SDS011;40525;55.926;21.066;2022-12-10T07:40:32;15.23;;;6.55;;
54627;SDS011;40525;55.926;21.066;2022-12-10T07:42:59;12.13;;;7.35;;
54627;SDS011;40525;55.926;21.066;2022-12-10T07:45:26;9.63;;;5.35;;
54627;SDS011;40525;55.926;21.066;2022-12-10T07:47:52;8.60;;;4.67;;
54627;SDS011;40525;55.926;21.066;2022-12-10T07:50:19;9.65;;;5.10;;
54627;SDS011;40525;55.926;21.066;2022-12-10T07:52:45;9.43;;;4.72;;
54627;SDS011;40525;55.926;21.066;2022-12-10T07:55:12;10.25;;;3.98;;
54627;SDS011;40525;55.926;21.066;2022-12-10T07:57:38;9.23;;;4.30;;
54627;SDS011;40525;55.926;21.066;2022-12-10T08:00:05;9.95;;;4.55;;
54627;SDS011;40525;55.926;21.066;2022-12-10T08:02:35;17.82;;;7.15;;
54627;SDS011;40525;55.926;21.066;2022-12-10T08:05:02;16.85;;;7.65;;
54627;SDS011;40525;55.926;21.066;2022-12-10T08:07:30;14.50;;;6.25;;
54627;SDS011;40525;55.926;21.066;2022-12-10T08:09:58;8.28;;;4.55;;
54627;SDS011;40525;55.926;21.066;2022-12-10T08:12:24;10.80;;;5.40;;
54627;SDS011;40525;55.926;21.066;2022-12-10T08:14:51;11.12;;;5.40;;
54627;SDS011;40525;55.926;21.066;2022-12-10T08:17:17;13.35;;;6.97;;
54627;SDS011;40525;55.926;21.066;2022-12-10T08:19:44;25.35;;;11.45;;
54627;SDS011;40525;55.926;21.066;2022-12-10T08:22:10;20.77;;;10.25;;
54627;SDS011;40525;55.926;21.066;2022-12-10T08:24:37;19.12;;;9.40;;
54627;SDS011;40525;55.926;21.066;2022-12-10T08:27:03;15.93;;;7.80;;
54627;SDS011;40525;55.926;21.066;2022-12-10T08:29:30;20.27;;;8.55;;
54627;SDS011;40525;55.926;21.066;2022-12-10T08:31:57;14.07;;;7.05;;
54627;SDS011;40525;55.926;21.066;2022-12-10T08:34:23;20.02;;;7.85;;
54627;SDS011;40525;55.926;21.066;2022-12-10T08:36:50;39.92;;;14.83;;
54627;SDS011;40525;55.926;21.066;2022-12-10T08:39:16;35.58;;;13.43;;
54627;SDS011;40525;55.926;21.066;2022-12-10T08:41:43;43.42;;;15.08;;
54627;SDS011;40525;55.926;21.066;2022-12-10T08:44:11;58.38;;;17.48;;
54627;SDS011;40525;55.926;21.066;2022-12-10T08:46:39;76.25;;;21.85;;
54627;SDS011;40525;55.926;21.066;2022-12-10T08:49:06;37.55;;;13.83;;
54627;SDS011;40525;55.926;21.066;2022-12-10T08:51:32;14.05;;;6.42;;
54627;SDS011;40525;55.926;21.066;2022-12-10T08:53:59;16.10;;;8.53;;
54627;SDS011;40525;55.926;21.066;2022-12-10T08:56:26;18.55;;;9.45;;
54627;SDS011;40525;55.926;21.066;2022-12-10T08:58:52;20.43;;;9.58;;
54627;SDS011;40525;55.926;21.066;2022-12-10T09:01:19;20.30;;;9.15;;
54627;SDS011;40525;55.926;21.066;2022-12-10T09:03:46;18.98;;;9.15;;
54627;SDS011;40525;55.926;21.066;2022-12-10T09:06:15;19.42;;;8.90;;
54627;SDS011;40525;55.926;21.066;2022-12-10T09:08:44;16.23;;;7.95;;
54627;SDS011;40525;55.926;21.066;2022-12-10T09:13:42;14.83;;;6.95;;
54627;SDS011;40525;55.926;21.066;2022-12-10T09:16:10;14.90;;;6.80;;
54627;SDS011;40525;55.926;21.066;2022-12-10T09:18:38;17.00;;;7.62;;
54627;SDS011;40525;55.926;21.066;2022-12-10T09:21:09;20.52;;;9.78;;
54627;SDS011;40525;55.926;21.066;2022-12-10T09:23:39;24.85;;;11.12;;
54627;SDS011;40525;55.926;21.066;2022-12-10T09:26:07;20.95;;;10.18;;
54627;SDS011;40525;55.926;21.066;2022-12-10T09:28:36;17.42;;;7.78;;
54627;SDS011;40525;55.926;21.066;2022-12-10T09:31:04;20.35;;;8.93;;
54627;SDS011;40525;55.926;21.066;2022-12-10T09:33:32;20.40;;;9.00;;
54627;SDS011;40525;55.926;21.066;2022-12-10T09:36:01;20.65;;;9.70;;
54627;SDS011;40525;55.926;21.066;2022-12-10T09:38:35;21.93;;;8.85;;
54627;SDS011;40525;55.926;21.066;2022-12-10T09:47:13;45.08;;;19.23;;
54627;SDS011;40525;55.926;21.066;2022-12-10T09:52:39;58.35;;;23.95;;
54627;SDS011;40525;55.926;21.066;2022-12-10T09:55:18;58.87;;;24.80;;
54627;SDS011;40525;55.926;21.066;2022-12-10T09:57:51;55.60;;;22.17;;
54627;SDS011;40525;55.926;21.066;2022-12-10T10:00:29;49.30;;;22.25;;
54627;SDS011;40525;55.926;21.066;2022-12-10T10:03:05;53.73;;;23.47;;
54627;SDS011;40525;55.926;21.066;2022-12-10T10:05:39;61.30;;;23.40;;
54627;SDS011;40525;55.926;21.066;2022-12-10T10:08:14;53.33;;;23.57;;
54627;SDS011;40525;55.926;21.066;2022-12-10T10:10:57;54.98;;;21.75;;
54627;SDS011;40525;55.926;21.066;2022-12-10T10:13:36;55.35;;;23.47;;
54627;SDS011;40525;55.926;21.066;2022-12-10T10:18:46;53.33;;;25.27;;
54627;SDS011;40525;55.926;21.066;2022-12-10T10:21:24;63.52;;;26.82;;
54627;SDS011;40525;55.926;21.066;2022-12-10T10:24:05;63.23;;;27.85;;
54627;SDS011;40525;55.926;21.066;2022-12-10T10:26:45;68.72;;;29.72;;
54627;SDS011;40525;55.926;21.066;2022-12-10T10:29:14;78.65;;;33.50;;
54627;SDS011;40525;55.926;21.066;2022-12-10T10:31:43;120.75;;;47.05;;
54627;SDS011;40525;55.926;21.066;2022-12-10T10:34:17;122.58;;;48.65;;
54627;SDS011;40525;55.926;21.066;2022-12-10T10:36:54;163.22;;;59.03;;
54627;SDS011;40525;55.926;21.066;2022-12-10T10:41:56;238.87;;;74.32;;
54627;SDS011;40525;55.926;21.066;2022-12-10T10:44:28;149.55;;;54.18;;
54627;SDS011;40525;55.926;21.066;2022-12-10T10:46:59;133.65;;;50.65;;
54627;SDS011;40525;55.926;21.066;2022-12-10T10:49:28;84.20;;;34.75;;
54627;SDS011;40525;55.926;21.066;2022-12-10T10:52:06;90.77;;;36.68;;
54627;SDS011;40525;55.926;21.066;2022-12-10T10:54:40;100.60;;;37.35;;
54627;SDS011;40525;55.926;21.066;2022-12-10T10:57:18;86.42;;;33.18;;
54627;SDS011;40525;55.926;21.066;2022-12-10T11:00:18;73.37;;;30.23;;
54627;SDS011;40525;55.926;21.066;2022-12-10T11:02:50;79.70;;;31.25;;
54627;SDS011;40525;55.926;21.066;2022-12-10T11:05:20;79.85;;;31.73;;
54627;SDS011;40525;55.926;21.066;2022-12-10T11:07:57;67.35;;;30.12;;
54627;SDS011;40525;55.926;21.066;2022-12-10T11:10:27;124.07;;;40.15;;
54627;SDS011;40525;55.926;21.066;2022-12-10T11:12:56;114.10;;;39.27;;
54627;SDS011;40525;55.926;21.066;2022-12-10T11:18:23;92.15;;;33.45;;
54627;SDS011;40525;55.926;21.066;2022-12-10T11:21:00;89.85;;;35.45;;
54627;SDS011;40525;55.926;21.066;2022-12-10T11:23:40;85.90;;;34.00;;
54627;SDS011;40525;55.926;21.066;2022-12-10T11:32:02;143.45;;;46.92;;
54627;SDS011;40525;55.926;21.066;2022-12-10T11:40:20;62.38;;;28.05;;
54627;SDS011;40525;55.926;21.066;2022-12-10T11:42:59;83.05;;;33.95;;
54627;SDS011;40525;55.926;21.066;2022-12-10T11:48:52;73.40;;;30.48;;
54627;SDS011;40525;55.926;21.066;2022-12-10T11:51:49;76.65;;;31.95;;
54627;SDS011;40525;55.926;21.066;2022-12-10T12:00:46;49.77;;;23.27;;
54627;SDS011;40525;55.926;21.066;2022-12-10T12:14:57;39.83;;;16.57;;
54627;SDS011;40525;55.926;21.066;2022-12-10T12:17:27;34.08;;;16.02;;
54627;SDS011;40525;55.926;21.066;2022-12-10T12:23:00;37.63;;;16.65;;
54627;SDS011;40525;55.926;21.066;2022-12-10T12:25:44;36.38;;;16.00;;
54627;SDS011;40525;55.926;21.066;2022-12-10T12:30:47;37.70;;;17.57;;
54627;SDS011;40525;55.926;21.066;2022-12-10T12:36:08;37.58;;;16.87;;
54627;SDS011;40525;55.926;21.066;2022-12-10T12:38:46;43.20;;;18.52;;
54627;SDS011;40525;55.926;21.066;2022-12-10T12:52:43;49.58;;;20.23;;
54627;SDS011;40525;55.926;21.066;2022-12-10T12:55:16;48.68;;;20.85;;
54627;SDS011;40525;55.926;21.066;2022-12-10T12:57:50;53.15;;;22.30;;
54627;SDS011;40525;55.926;21.066;2022-12-10T13:00:24;60.50;;;23.80;;
54627;SDS011;40525;55.926;21.066;2022-12-10T13:05:36;62.50;;;25.12;;
54627;SDS011;40525;55.926;21.066;2022-12-10T13:30:04;66.77;;;28.00;;
54627;SDS011;40525;55.926;21.066;2022-12-10T13:46:32;93.82;;;37.33;;
54627;SDS011;40525;55.926;21.066;2022-12-10T13:49:03;91.53;;;36.77;;
54627;SDS011;40525;55.926;21.066;2022-12-10T13:57:14;84.00;;;34.33;;
54627;SDS011;40525;55.926;21.066;2022-12-10T14:00:09;81.02;;;33.53;;
54627;SDS011;40525;55.926;21.066;2022-12-10T14:05:43;87.00;;;34.58;;
54627;SDS011;40525;55.926;21.066;2022-12-10T14:08:26;82.62;;;32.03;;
54627;SDS011;40525;55.926;21.066;2022-12-10T14:10:56;81.25;;;32.93;;
54627;SDS011;40525;55.926;21.066;2022-12-10T14:13:31;76.47;;;32.13;;
54627;SDS011;40525;55.926;21.066;2022-12-10T14:16:00;73.57;;;31.20;;
54627;SDS011;40525;55.926;21.066;2022-12-10T14:18:30;76.45;;;30.60;;
54627;SDS011;40525;55.926;21.066;2022-12-10T14:20:56;77.85;;;32.00;;
54627;SDS011;40525;55.926;21.066;2022-12-10T14:23:26;89.67;;;34.70;;
54627;SDS011;40525;55.926;21.066;2022-12-10T14:26:06;84.75;;;34.00;;
54627;SDS011;40525;55.926;21.066;2022-12-10T14:28:50;87.40;;;33.42;;
54627;SDS011;40525;55.926;21.066;2022-12-10T14:31:25;95.42;;;34.40;;
54627;SDS011;40525;55.926;21.066;2022-12-10T14:34:03;82.25;;;33.73;;
54627;SDS011;40525;55.926;21.066;2022-12-10T14:36:37;79.67;;;32.38;;
54627;SDS011;40525;55.926;21.066;2022-12-10T14:39:16;78.05;;;32.15;;
54627;SDS011;40525;55.926;21.066;2022-12-10T14:41:46;85.57;;;31.57;;
54627;SDS011;40525;55.926;21.066;2022-12-10T14:44:16;76.55;;;30.95;;
54627;SDS011;40525;55.926;21.066;2022-12-10T14:46:46;91.15;;;32.80;;
54627;SDS011;40525;55.926;21.066;2022-12-10T14:49:21;79.17;;;33.28;;
54627;SDS011;40525;55.926;21.066;2022-12-10T14:51:51;86.57;;;33.65;;
54627;SDS011;40525;55.926;21.066;2022-12-10T14:54:33;95.03;;;36.20;;
54627;SDS011;40525;55.926;21.066;2022-12-10T14:57:03;101.30;;;38.78;;
54627;SDS011;40525;55.926;21.066;2022-12-10T14:59:35;103.45;;;38.53;;
54627;SDS011;40525;55.926;21.066;2022-12-10T15:02:29;105.80;;;39.13;;
54627;SDS011;40525;55.926;21.066;2022-12-10T15:04:48;95.80;;;37.83;;
54627;SDS011;40525;55.926;21.066;2022-12-10T15:07:17;83.67;;;34.08;;
54627;SDS011;40525;55.926;21.066;2022-12-10T15:09:47;81.20;;;31.93;;
54627;SDS011;40525;55.926;21.066;2022-12-10T15:12:26;85.70;;;34.80;;
54627;SDS011;40525;55.926;21.066;2022-12-10T15:14:59;93.62;;;36.88;;
54627;SDS011;40525;55.926;21.066;2022-12-10T15:17:33;88.62;;;35.68;;
54627;SDS011;40525;55.926;21.066;2022-12-10T15:20:09;84.80;;;34.10;;
54627;SDS011;40525;55.926;21.066;2022-12-10T15:22:52;84.37;;;33.02;;
54627;SDS011;40525;55.926;21.066;2022-12-10T15:25:25;86.90;;;34.70;;
54627;SDS011;40525;55.926;21.066;2022-12-10T15:27:55;84.05;;;32.42;;
54627;SDS011;40525;55.926;21.066;2022-12-10T15:30:32;88.20;;;33.65;;
54627;SDS011;40525;55.926;21.066;2022-12-10T15:33:03;84.40;;;31.80;;
54627;SDS011;40525;55.926;21.066;2022-12-10T15:35:40;94.87;;;35.90;;
54627;SDS011;40525;55.926;21.066;2022-12-10T15:38:10;106.70;;;39.13;;
54627;SDS011;40525;55.926;21.066;2022-12-10T15:40:38;105.95;;;35.88;;
54627;SDS011;40525;55.926;21.066;2022-12-10T15:43:12;100.82;;;37.42;;
54627;SDS011;40525;55.926;21.066;2022-12-10T15:45:51;96.95;;;34.63;;
54627;SDS011;40525;55.926;21.066;2022-12-10T15:48:19;101.40;;;34.67;;
54627;SDS011;40525;55.926;21.066;2022-12-10T15:50:47;94.13;;;33.63;;
54627;SDS011;40525;55.926;21.066;2022-12-10T15:53:16;87.60;;;32.58;;
54627;SDS011;40525;55.926;21.066;2022-12-10T15:55:49;84.20;;;33.02;;
54627;SDS011;40525;55.926;21.066;2022-12-10T15:58:15;83.37;;;31.05;;
54627;SDS011;40525;55.926;21.066;2022-12-10T16:00:42;93.10;;;33.00;;
54627;SDS011;40525;55.926;21.066;2022-12-10T16:03:13;75.25;;;28.35;;
54627;SDS011;40525;55.926;21.066;2022-12-10T16:05:43;69.60;;;27.22;;
54627;SDS011;40525;55.926;21.066;2022-12-10T16:08:13;76.45;;;29.82;;
54627;SDS011;40525;55.926;21.066;2022-12-10T16:10:46;78.20;;;27.77;;
54627;SDS011;40525;55.926;21.066;2022-12-10T16:13:23;78.55;;;29.87;;
54627;SDS011;40525;55.926;21.066;2022-12-10T16:16:02;79.58;;;29.40;;
54627;SDS011;40525;55.926;21.066;2022-12-10T16:18:26;76.55;;;29.75;;
54627;SDS011;40525;55.926;21.066;2022-12-10T16:20:53;80.92;;;29.87;;
54627;SDS011;40525;55.926;21.066;2022-12-10T16:23:19;81.12;;;29.92;;
54627;SDS011;40525;55.926;21.066;2022-12-10T16:25:46;92.45;;;32.00;;
54627;SDS011;40525;55.926;21.066;2022-12-10T16:28:13;99.60;;;32.75;;
54627;SDS011;40525;55.926;21.066;2022-12-10T16:30:50;94.28;;;34.70;;
54627;SDS011;40525;55.926;21.066;2022-12-10T16:33:20;88.62;;;33.58;;
54627;SDS011;40525;55.926;21.066;2022-12-10T16:35:49;100.33;;;38.67;;
54627;SDS011;40525;55.926;21.066;2022-12-10T16:38:18;91.80;;;37.25;;
54627;SDS011;40525;55.926;21.066;2022-12-10T16:40:46;98.10;;;35.92;;
54627;SDS011;40525;55.926;21.066;2022-12-10T16:43:14;96.08;;;34.48;;
54627;SDS011;40525;55.926;21.066;2022-12-10T16:45:44;87.55;;;34.20;;
54627;SDS011;40525;55.926;21.066;2022-12-10T16:48:11;96.70;;;34.43;;
54627;SDS011;40525;55.926;21.066;2022-12-10T16:50:39;101.15;;;34.73;;
54627;SDS011;40525;55.926;21.066;2022-12-10T16:53:17;98.25;;;36.90;;
54627;SDS011;40525;55.926;21.066;2022-12-10T16:55:51;91.05;;;34.10;;